Terminal Aerodrome Forecast
Issued by NWS

Home | Current Version | Previous Version | Text Only | Print | Product List | Glossary On
Versions: 1 2 3 4 5 6 7 8 9 10 11 12 13
297
FTAK31 PAJN 252340
TAFAPG
TAF
PAPG 252340Z 2600/2624 VRB04KT P6SM SCT005 BKN035 OVC050
      TEMPO 2600/2604 SCT002 BKN025 OVC035
     FM261100 00000KT 6SM BR BCFG SCT001 BKN120
     FM261700 VRB03KT P6SM BKN150
      AMD LTD TO CLD VIS AND WIND 2606/2615=

USA.gov is the U.S. government's official web portal to all federal, state and local government web resources and services.